ZWWW/URC METAR and TAF weather

Enter ICAO airport designator
Station Type Date Time Source
ZWWW METAR 2023/01/30 10:30 UTC NOAA

ZWWW 301030Z 31001MPS 1800 FU NSC M13/M18 Q1028 NOSIG


Station Type Date Time Source
ZWWW Decoded METAR 2023/01/30 10:30 UTC NOAA

Urum-Qi / Diwopu, China (ZWWW) 43-54N 087-28E
Jan 30, 2023 - 05:30 AM EST / 2023.01.30 1030 UTC
Wind: from the NW (310 degrees) at 2 MPH (2 KT):0
Visibility: 1 mile(s):0
Weather: smoke
Temperature: 8 F (-13 C)
Dew Point: 0 F (-18 C)
Relative Humidity: 66%
Pressure (altimeter): 30.36 in. Hg (1028 hPa)
ob: ZWWW 301030Z 31001MPS 1800 FU NSC M13/M18 Q1028 NOSIG
cycle: 10

Station Type Date Time Source
ZWWW TAF 2023/01/30 12:03 UTC NOAA

TAF ZWWW 300904Z 3012/3112 20002MPS 2000 BR NSC TXM10/3108Z TNM16/3023Z
BECMG 3020/3021 1400
BECMG 3104/3105 01002MPS 2000

Example: see airport list